createdAt,value
2019-03-03T00:00:18.468Z,24.61
2019-03-03T00:01:18.442Z,24.41
2019-03-03T00:02:18.413Z,24.71
2019-03-03T00:03:18.454Z,24.41
2019-03-03T00:04:18.372Z,24.41
2019-03-03T00:05:18.358Z,24.03
2019-03-03T00:06:18.329Z,24.03
2019-03-03T00:07:18.303Z,24.03
2019-03-03T00:08:18.281Z,24.22
2019-03-03T00:09:18.270Z,24.41
2019-03-03T00:10:18.243Z,24.32
2019-03-03T00:11:17.987Z,24.41
2019-03-03T00:12:18.197Z,24.22
2019-03-03T00:13:18.186Z,24.32
2019-03-03T00:14:18.163Z,24.32
2019-03-03T00:15:18.143Z,24.32
2019-03-03T00:16:18.111Z,24.32
2019-03-03T00:17:18.089Z,24.32
2019-03-03T00:18:18.073Z,24.32
2019-03-03T00:19:18.058Z,24.12
2019-03-03T00:20:18.031Z,24.22
2019-03-03T00:21:18.005Z,23.93
2019-03-03T00:22:17.992Z,24.32
2019-03-03T00:23:17.981Z,24.12
2019-03-03T00:24:17.955Z,24.12
2019-03-03T00:25:17.918Z,24.41
2019-03-03T00:26:17.906Z,24.22
2019-03-03T00:27:17.878Z,24.12
2019-03-03T00:28:17.862Z,23.93
2019-03-03T00:29:17.849Z,23.93
2019-03-03T00:30:17.822Z,24.03
2019-03-03T00:31:17.802Z,23.93
2019-03-03T00:32:17.769Z,24.12
2019-03-03T00:33:17.749Z,24.22
2019-03-03T00:34:17.733Z,24.22
2019-03-03T00:35:17.720Z,24.32
2019-03-03T00:36:17.689Z,24.12
2019-03-03T00:37:17.664Z,24.22
2019-03-03T00:38:17.650Z,24.12
2019-03-03T00:39:17.641Z,23.93
2019-03-03T00:40:17.611Z,24.12
2019-03-03T00:41:17.579Z,23.93
2019-03-03T00:42:17.565Z,23.83
2019-03-03T00:43:17.536Z,23.83
2019-03-03T00:44:17.528Z,23.74
2019-03-03T00:45:17.497Z,23.83
2019-03-03T00:46:17.240Z,23.83
2019-03-03T00:47:17.456Z,23.74
2019-03-03T00:48:17.440Z,23.83
2019-03-03T00:49:17.419Z,23.83
2019-03-03T00:50:17.396Z,23.35
2019-03-03T00:51:17.374Z,23.44
2019-03-03T00:52:17.352Z,23.44
2019-03-03T00:53:17.337Z,23.35
2019-03-03T00:54:17.308Z,23.64
2019-03-03T00:55:17.281Z,23.64
2019-03-03T00:56:17.260Z,23.25
2019-03-03T00:57:17.254Z,23.35
2019-03-03T00:58:17.224Z,23.74
2019-03-03T00:59:17.207Z,23.64
2019-03-03T01:00:17.177Z,23.54
2019-03-03T01:01:17.167Z,23.54
2019-03-03T01:02:17.140Z,23.54
2019-03-03T01:03:17.124Z,23.54
2019-03-03T01:04:17.090Z,23.93
2019-03-03T01:05:17.073Z,23.44
2019-03-03T01:06:17.061Z,23.83
2019-03-03T01:07:17.040Z,23.44
2019-03-03T01:08:17.013Z,23.74
2019-03-03T01:09:16.984Z,23.44
2019-03-03T01:10:16.970Z,23.83
2019-03-03T01:11:16.953Z,23.54
2019-03-03T01:12:16.935Z,23.43
2019-03-03T01:13:16.901Z,23.83
2019-03-03T01:14:16.884Z,23.64
2019-03-03T01:15:16.857Z,23.64
2019-03-03T01:16:16.849Z,23.54
2019-03-03T01:17:16.817Z,23.74
2019-03-03T01:18:16.801Z,23.64
2019-03-03T01:19:16.801Z,23.74
2019-03-03T01:20:16.762Z,23.74
2019-03-03T01:21:16.743Z,23.64
2019-03-03T01:22:16.715Z,23.54
2019-03-03T01:23:16.692Z,23.74
2019-03-03T01:24:16.672Z,23.74
2019-03-03T01:25:16.655Z,23.74
2019-03-03T01:26:16.632Z,23.74
2019-03-03T01:27:16.602Z,23.83
2019-03-03T01:28:16.581Z,23.74
2019-03-03T01:29:16.572Z,23.83
2019-03-03T01:30:16.543Z,23.83
2019-03-03T01:31:16.534Z,23.83
2019-03-03T01:32:16.496Z,23.74
2019-03-03T01:33:16.495Z,23.83
2019-03-03T01:34:16.461Z,23.83
2019-03-03T01:35:16.442Z,23.83
2019-03-03T01:36:16.409Z,23.64
2019-03-03T01:37:16.387Z,23.74
2019-03-03T01:38:16.375Z,23.82
2019-03-03T01:39:16.361Z,23.74
2019-03-03T01:40:16.330Z,23.83
2019-03-03T01:41:16.304Z,23.83
2019-03-03T01:42:16.294Z,23.83
2019-03-03T01:43:16.278Z,23.64
2019-03-03T01:44:16.253Z,23.64
2019-03-03T01:45:16.227Z,23.54
2019-03-03T01:46:16.201Z,23.54
2019-03-03T01:47:16.175Z,23.54
2019-03-03T01:48:16.166Z,23.54
2019-03-03T01:49:16.138Z,23.25
2019-03-03T01:50:16.117Z,23.35
2019-03-03T01:51:16.093Z,23.44
2019-03-03T01:52:16.086Z,23.54
2019-03-03T01:53:16.060Z,23.54
2019-03-03T01:54:16.067Z,23.54
2019-03-03T01:55:16.008Z,23.54
2019-03-03T01:56:15.999Z,23.35
2019-03-03T01:57:15.974Z,23.44
2019-03-03T01:58:15.947Z,23.25
2019-03-03T01:59:15.922Z,23.16
2019-03-03T02:00:15.900Z,23.16
2019-03-03T02:01:15.890Z,23.35
2019-03-03T02:02:15.862Z,23.25
2019-03-03T02:03:15.850Z,23.35
2019-03-03T02:04:15.813Z,23.35
2019-03-03T02:05:15.803Z,23.35
2019-03-03T02:06:15.779Z,23.35
2019-03-03T02:07:15.762Z,23.16
2019-03-03T02:08:15.732Z,23.16
2019-03-03T02:09:15.707Z,23.16
2019-03-03T02:10:15.695Z,23.16
2019-03-03T02:11:15.666Z,23.35
2019-03-03T02:12:15.651Z,23.35
2019-03-03T02:13:15.634Z,23.25
2019-03-03T02:14:15.605Z,23.16
2019-03-03T02:15:15.581Z,23.25
2019-03-03T02:16:15.559Z,23.25
2019-03-03T02:17:15.549Z,23.25
2019-03-03T02:18:15.520Z,23.25
2019-03-03T02:19:15.509Z,23.16
2019-03-03T02:20:15.477Z,23.44
2019-03-03T02:21:15.464Z,23.25
2019-03-03T02:22:15.439Z,23.35
2019-03-03T02:23:15.425Z,23.25
2019-03-03T02:24:15.389Z,23.25
2019-03-03T02:25:15.368Z,23.16
2019-03-03T02:26:15.353Z,23.35
2019-03-03T02:27:15.336Z,23.35
2019-03-03T02:28:15.307Z,23.35
2019-03-03T02:29:15.284Z,23.25
2019-03-03T02:30:15.271Z,23.35
2019-03-03T02:31:15.253Z,23.16
2019-03-03T02:32:15.233Z,23.16
2019-03-03T02:33:15.200Z,23.35
2019-03-03T02:34:15.192Z,23.06
2019-03-03T02:35:15.166Z,23.25
2019-03-03T02:36:15.161Z,23.06
2019-03-03T02:37:15.121Z,23.06
2019-03-03T02:38:15.101Z,23.16
2019-03-03T02:39:15.075Z,22.86
2019-03-03T02:40:15.063Z,23.44
2019-03-03T02:41:15.041Z,22.86
2019-03-03T02:42:15.014Z,23.06
2019-03-03T02:43:14.999Z,22.86
2019-03-03T02:44:14.971Z,23.06
2019-03-03T02:45:14.962Z,22.86
2019-03-03T02:46:14.934Z,22.86
2019-03-03T02:47:14.906Z,23.25
2019-03-03T02:48:14.879Z,23.25
2019-03-03T02:49:14.879Z,23.25
2019-03-03T02:50:14.869Z,22.86
2019-03-03T02:51:14.864Z,22.86
2019-03-03T02:52:14.820Z,23.16
2019-03-03T02:53:14.785Z,23.06
2019-03-03T02:54:14.769Z,23.25
2019-03-03T02:55:14.747Z,23.16
2019-03-03T02:56:14.785Z,23.16
2019-03-03T02:57:14.687Z,23.44
2019-03-03T02:58:14.697Z,23.44
2019-03-03T02:59:14.660Z,23.54
2019-03-03T03:00:14.631Z,23.25
2019-03-03T03:01:14.613Z,22.96
2019-03-03T03:02:14.590Z,22.96
2019-03-03T03:03:14.575Z,23.54
2019-03-03T03:04:14.549Z,22.96
2019-03-03T03:05:14.519Z,23.06
2019-03-03T03:06:14.506Z,23.25
2019-03-03T03:07:14.479Z,23.06
2019-03-03T03:08:14.484Z,22.96
2019-03-03T03:09:14.439Z,22.96
2019-03-03T03:10:14.418Z,23.44
2019-03-03T03:11:14.393Z,23.54
2019-03-03T03:12:14.392Z,23.54
2019-03-03T03:13:14.365Z,22.96
2019-03-03T03:14:14.333Z,23.16
2019-03-03T03:15:14.340Z,22.96
2019-03-03T03:16:14.293Z,23.25
2019-03-03T03:17:14.276Z,23.44
2019-03-03T03:18:14.251Z,22.96
2019-03-03T03:19:14.221Z,22.96
2019-03-03T03:20:14.203Z,22.96
2019-03-03T03:21:14.190Z,23.25
2019-03-03T03:22:14.161Z,22.86
2019-03-03T03:23:14.148Z,23.25
2019-03-03T03:24:14.112Z,23.25
2019-03-03T03:25:14.103Z,23.25
2019-03-03T03:26:14.081Z,23.06
2019-03-03T03:27:14.072Z,22.96
2019-03-03T03:28:14.034Z,23.06
2019-03-03T03:29:14.014Z,23.06
2019-03-03T03:30:13.997Z,23.06
2019-03-03T03:31:13.997Z,23.16
2019-03-03T03:32:13.969Z,23.16
2019-03-03T03:33:13.950Z,23.16
2019-03-03T03:34:13.681Z,23.25
2019-03-03T03:35:13.895Z,22.86
2019-03-03T03:36:13.873Z,22.86
2019-03-03T03:37:13.844Z,23.35
2019-03-03T03:38:13.828Z,23.35
2019-03-03T03:39:13.801Z,23.25
2019-03-03T03:40:13.790Z,23.35
2019-03-03T03:41:13.761Z,23.25
2019-03-03T03:42:13.754Z,23.16
2019-03-03T03:43:13.712Z,23.25
2019-03-03T03:44:13.717Z,23.35
2019-03-03T03:45:13.692Z,23.25
2019-03-03T03:46:13.658Z,23.16
2019-03-03T03:47:13.624Z,23.25
2019-03-03T03:48:13.611Z,23.16
2019-03-03T03:49:13.594Z,23.16
2019-03-03T03:50:13.575Z,23.35
2019-03-03T03:51:13.551Z,23.35
2019-03-03T03:52:13.525Z,23.16
2019-03-03T03:53:13.512Z,23.16
2019-03-03T03:54:13.493Z,23.06
2019-03-03T03:55:13.469Z,23.64
2019-03-03T03:56:13.439Z,23.16
2019-03-03T03:57:13.445Z,23.16
2019-03-03T03:58:13.398Z,23.16
2019-03-03T03:59:13.381Z,23.35
2019-03-03T04:00:13.356Z,23.35
2019-03-03T04:01:13.351Z,23.25
2019-03-03T04:02:13.316Z,23.16
2019-03-03T04:03:13.296Z,23.16
2019-03-03T04:04:13.279Z,23.35
2019-03-03T04:05:13.270Z,23.44
2019-03-03T04:06:13.262Z,23.35
2019-03-03T04:07:13.222Z,23.44
2019-03-03T04:08:13.197Z,23.35
2019-03-03T04:09:13.204Z,23.64
2019-03-03T04:10:13.146Z,23.44
2019-03-03T04:11:13.123Z,23.74
2019-03-03T04:12:13.104Z,23.44
2019-03-03T04:13:13.084Z,23.74
2019-03-03T04:14:13.071Z,23.54
2019-03-03T04:15:13.040Z,23.64
2019-03-03T04:16:13.033Z,23.74
2019-03-03T04:17:12.998Z,23.83
2019-03-03T04:18:12.974Z,23.64
2019-03-03T04:19:12.947Z,23.83
2019-03-03T04:20:12.930Z,23.74
2019-03-03T04:21:12.923Z,23.83
2019-03-03T04:22:12.888Z,23.83
2019-03-03T04:23:12.861Z,23.64
2019-03-03T04:24:12.840Z,23.74
2019-03-03T04:25:12.832Z,23.83
2019-03-03T04:26:12.804Z,23.83
2019-03-03T04:27:12.792Z,23.83
2019-03-03T04:28:12.758Z,23.93
2019-03-03T04:29:12.760Z,23.74
2019-03-03T04:30:12.718Z,23.64
2019-03-03T04:31:12.703Z,23.64
2019-03-03T04:32:12.674Z,23.93
2019-03-03T04:33:12.676Z,23.74
2019-03-03T04:34:12.634Z,23.74
2019-03-03T04:35:12.377Z,23.64
2019-03-03T04:36:12.586Z,23.74
2019-03-03T04:37:12.565Z,23.64
2019-03-03T04:38:12.550Z,23.74
2019-03-03T04:39:12.530Z,23.64
2019-03-03T04:40:12.509Z,23.64
2019-03-03T04:41:12.473Z,23.54
2019-03-03T04:42:12.463Z,23.74
2019-03-03T04:43:12.433Z,23.74
2019-03-03T04:44:12.424Z,23.64
2019-03-03T04:45:12.389Z,23.74
2019-03-03T04:46:12.377Z,23.74
2019-03-03T04:47:12.349Z,23.64
2019-03-03T04:48:12.338Z,23.64
2019-03-03T04:49:12.315Z,23.74
2019-03-03T04:50:12.295Z,23.83
2019-03-03T04:51:12.261Z,23.64
2019-03-03T04:52:12.248Z,23.83
2019-03-03T04:53:12.230Z,23.64
2019-03-03T04:54:12.203Z,23.74
2019-03-03T04:55:12.178Z,23.74
2019-03-03T04:56:12.157Z,23.93
2019-03-03T04:57:12.146Z,23.93
2019-03-03T04:58:12.119Z,23.83
2019-03-03T04:59:12.105Z,23.83
2019-03-03T05:00:12.072Z,23.64
2019-03-03T05:01:12.061Z,23.44
2019-03-03T05:02:12.035Z,23.25
2019-03-03T05:03:12.019Z,23.44
2019-03-03T05:04:11.991Z,23.44
2019-03-03T05:05:11.963Z,23.54
2019-03-03T05:06:11.951Z,23.44
2019-03-03T05:07:11.933Z,23.35
2019-03-03T05:08:11.906Z,23.54
2019-03-03T05:09:11.881Z,23.54
2019-03-03T05:10:11.868Z,23.44
2019-03-03T05:11:11.848Z,23.35
2019-03-03T05:12:11.832Z,23.35
2019-03-03T05:13:11.796Z,23.44
2019-03-03T05:14:11.783Z,23.25
2019-03-03T05:15:11.752Z,23.16
2019-03-03T05:16:11.746Z,23.35
2019-03-03T05:17:11.715Z,23.35
2019-03-03T05:18:11.695Z,23.35
2019-03-03T05:19:11.669Z,23.16
2019-03-03T05:20:11.657Z,23.16
2019-03-03T05:21:11.638Z,23.54
2019-03-03T05:22:11.613Z,23.54
2019-03-03T05:23:11.582Z,23.25
2019-03-03T05:24:11.567Z,23.25
2019-03-03T05:25:11.549Z,23.25
2019-03-03T05:26:11.521Z,23.25
2019-03-03T05:27:11.498Z,23.16
2019-03-03T05:28:11.484Z,23.16
2019-03-03T05:29:11.467Z,23.25
2019-03-03T05:30:11.439Z,23.35
2019-03-03T05:31:11.423Z,23.06
2019-03-03T05:32:11.392Z,23.35
2019-03-03T05:33:11.382Z,23.25
2019-03-03T05:34:11.357Z,23.16
2019-03-03T05:35:11.338Z,23.16
2019-03-03T05:36:11.323Z,23.16
2019-03-03T05:37:11.298Z,23.16
2019-03-03T05:38:11.267Z,22.86
2019-03-03T05:39:11.243Z,23.16
2019-03-03T05:40:11.226Z,23.06
2019-03-03T05:41:11.211Z,22.86
2019-03-03T05:42:11.182Z,23.25
2019-03-03T05:43:11.160Z,22.86
2019-03-03T05:44:11.138Z,23.06
2019-03-03T05:45:11.126Z,22.86
2019-03-03T05:46:11.102Z,23.25
2019-03-03T05:47:11.085Z,22.86
2019-03-03T05:48:11.048Z,22.86
2019-03-03T05:49:11.041Z,23.06
2019-03-03T05:50:11.027Z,22.86
2019-03-03T05:51:11.002Z,23.06
2019-03-03T05:52:10.964Z,22.86
2019-03-03T05:53:10.946Z,23.25
2019-03-03T05:54:10.931Z,23.25
2019-03-03T05:55:10.914Z,23.35
2019-03-03T05:56:10.888Z,23.35
2019-03-03T05:57:10.863Z,22.86
2019-03-03T05:58:10.846Z,23.06
2019-03-03T05:59:10.834Z,23.16
2019-03-03T06:00:10.811Z,23.06
2019-03-03T06:01:10.780Z,23.06
2019-03-03T06:02:10.767Z,22.86
2019-03-03T06:03:10.735Z,22.86
2019-03-03T06:04:10.722Z,23.06
2019-03-03T06:05:10.691Z,22.86
2019-03-03T06:06:10.676Z,22.86
2019-03-03T06:07:10.671Z,23.25
2019-03-03T06:08:10.638Z,22.86
2019-03-03T06:09:10.616Z,22.86
2019-03-03T06:10:10.590Z,23.06
2019-03-03T06:11:10.564Z,22.86
2019-03-03T06:12:10.553Z,23.44
2019-03-03T06:13:10.538Z,23.06
2019-03-03T06:14:10.505Z,23.16
2019-03-03T06:15:12.622Z,23.16
2019-03-03T06:16:10.459Z,23.06
2019-03-03T06:17:10.447Z,22.86
2019-03-03T06:18:10.419Z,23.35
2019-03-03T06:19:10.408Z,23.35
2019-03-03T06:20:10.375Z,22.86
2019-03-03T06:21:10.366Z,23.16
2019-03-03T06:22:10.337Z,23.16
2019-03-03T06:23:10.323Z,23.25
2019-03-03T06:24:10.291Z,23.25
2019-03-03T06:25:10.280Z,23.25
2019-03-03T06:26:10.262Z,22.77
2019-03-03T06:27:10.235Z,23.25
2019-03-03T06:28:10.207Z,23.35
2019-03-03T06:29:10.184Z,23.35
2019-03-03T06:30:10.169Z,23.35
2019-03-03T06:31:10.149Z,23.35
2019-03-03T06:32:09.902Z,23.16
2019-03-03T06:33:10.102Z,23.25
2019-03-03T06:34:10.081Z,23.35
2019-03-03T06:35:10.054Z,23.64
2019-03-03T06:36:10.044Z,23.35
2019-03-03T06:37:10.012Z,23.35
2019-03-03T06:38:09.994Z,23.35
2019-03-03T06:39:09.968Z,23.16
2019-03-03T06:40:09.959Z,23.25
2019-03-03T06:41:09.940Z,23.25
2019-03-03T06:42:09.913Z,23.44
2019-03-03T06:43:09.884Z,23.25
2019-03-03T06:44:09.872Z,23.35
2019-03-03T06:45:09.884Z,23.25
2019-03-03T06:46:09.825Z,23.44
2019-03-03T06:47:09.803Z,23.25
2019-03-03T06:48:09.779Z,23.44
2019-03-03T06:49:09.794Z,23.64
2019-03-03T06:50:09.738Z,23.25
2019-03-03T06:51:09.724Z,23.54
2019-03-03T06:52:09.694Z,23.35
2019-03-03T06:53:09.684Z,23.64
2019-03-03T06:54:09.660Z,23.54
2019-03-03T06:55:09.639Z,23.54
2019-03-03T06:56:09.611Z,23.54
2019-03-03T06:57:09.600Z,23.44
2019-03-03T06:58:09.582Z,23.74
2019-03-03T06:59:09.556Z,23.54
2019-03-03T07:00:10.186Z,23.54
2019-03-03T07:01:09.502Z,23.83
2019-03-03T07:02:09.489Z,23.64
2019-03-03T07:03:09.476Z,23.64
2019-03-03T07:04:09.451Z,23.93
2019-03-03T07:05:09.417Z,23.83
2019-03-03T07:06:09.406Z,23.93
2019-03-03T07:07:09.376Z,23.44
2019-03-03T07:08:09.365Z,23.83
2019-03-03T07:09:09.337Z,23.83
2019-03-03T07:10:09.314Z,23.83
2019-03-03T07:11:10.077Z,23.74
2019-03-03T07:12:09.278Z,23.83
2019-03-03T07:13:09.259Z,23.74
2019-03-03T07:14:09.233Z,23.83
2019-03-03T07:15:09.206Z,23.83
2019-03-03T07:16:09.198Z,23.83
2019-03-03T07:17:09.175Z,23.93
2019-03-03T07:18:09.149Z,23.74
2019-03-03T07:19:09.123Z,23.93
2019-03-03T07:20:09.110Z,23.74
2019-03-03T07:21:09.093Z,23.74
2019-03-03T07:22:09.073Z,23.74
2019-03-03T07:23:09.049Z,23.64
2019-03-03T07:24:09.020Z,23.74
2019-03-03T07:25:09.006Z,23.74
2019-03-03T07:26:08.980Z,23.74
2019-03-03T07:27:08.964Z,23.74
2019-03-03T07:28:08.935Z,23.64
2019-03-03T07:29:08.910Z,23.64
2019-03-03T07:30:08.894Z,23.64
2019-03-03T07:31:08.880Z,23.74
2019-03-03T07:32:08.859Z,23.44
2019-03-03T07:33:08.825Z,23.74
2019-03-03T07:34:08.810Z,23.74
2019-03-03T07:35:08.793Z,23.64
2019-03-03T07:36:08.836Z,23.75
2019-03-03T07:37:08.742Z,23.54
2019-03-03T07:38:08.726Z,23.55
2019-03-03T07:39:08.699Z,23.64
2019-03-03T07:40:08.687Z,23.54
2019-03-03T07:41:08.662Z,23.64
2019-03-03T07:42:08.643Z,23.75
2019-03-03T07:43:08.623Z,23.83
2019-03-03T07:44:08.603Z,23.83
2019-03-03T07:45:08.581Z,23.44
2019-03-03T07:46:08.554Z,23.44
2019-03-03T07:47:08.536Z,23.36
2019-03-03T07:48:08.515Z,23.46
2019-03-03T07:49:08.499Z,23.44
2019-03-03T07:50:08.471Z,23.65
2019-03-03T07:51:08.453Z,23.65
2019-03-03T07:52:08.427Z,23.64
2019-03-03T07:53:08.431Z,23.55
2019-03-03T07:54:08.384Z,23.65
2019-03-03T07:55:08.371Z,23.36
2019-03-03T07:56:08.343Z,23.65
2019-03-03T07:57:08.333Z,23.46
2019-03-03T07:58:08.309Z,23.85
2019-03-03T07:59:08.286Z,23.65
2019-03-03T08:00:08.277Z,23.36
2019-03-03T08:01:08.239Z,23.46
2019-03-03T08:02:08.217Z,23.26
2019-03-03T08:03:08.200Z,23.54
2019-03-03T08:04:08.183Z,23.46
2019-03-03T08:05:08.148Z,23.44
2019-03-03T08:06:08.136Z,23.35
2019-03-03T08:07:08.122Z,23.36
2019-03-03T08:08:08.096Z,23.55
2019-03-03T08:09:08.063Z,23.54
2019-03-03T08:10:08.048Z,23.26
2019-03-03T08:11:08.022Z,23.46
2019-03-03T08:12:08.013Z,23.55
2019-03-03T08:13:11.857Z,24.04
2019-03-03T08:14:07.966Z,23.46
2019-03-03T08:15:07.698Z,23.46
2019-03-03T08:16:07.928Z,23.36
2019-03-03T08:17:07.904Z,23.93
2019-03-03T08:18:07.876Z,23.83
2019-03-03T08:19:07.851Z,23.75
2019-03-03T08:20:07.937Z,23.93
2019-03-03T08:21:07.824Z,23.93
2019-03-03T08:22:07.794Z,23.94
2019-03-03T08:23:07.777Z,23.94
2019-03-03T08:24:07.748Z,24.23
2019-03-03T08:25:07.737Z,24.03
2019-03-03T08:26:07.708Z,24.03
2019-03-03T08:27:07.694Z,24.23
2019-03-03T08:28:07.673Z,24.32
2019-03-03T08:29:07.660Z,24.32
2019-03-03T08:30:07.625Z,24.12
2019-03-03T08:31:07.639Z,23.94
2019-03-03T08:32:07.577Z,24.13
2019-03-03T08:33:07.556Z,24.13
2019-03-03T08:34:07.541Z,24.23
2019-03-03T08:35:07.539Z,23.94
2019-03-03T08:36:09.516Z,23.94
2019-03-03T08:37:07.470Z,24.03
2019-03-03T08:38:07.456Z,24.23
2019-03-03T08:39:07.439Z,24.23
2019-03-03T08:40:07.421Z,24.43
2019-03-03T08:41:07.386Z,24.12
2019-03-03T08:42:07.373Z,24.23
2019-03-03T08:43:07.344Z,24.23
2019-03-03T08:44:07.333Z,24.33
2019-03-03T08:45:07.302Z,24.23
2019-03-03T08:46:07.282Z,24.33
2019-03-03T08:47:07.270Z,24.43
2019-03-03T08:48:07.249Z,24.33
2019-03-03T08:49:07.231Z,24.33
2019-03-03T08:50:07.205Z,24.32
2019-03-03T08:51:07.174Z,24.33
2019-03-03T08:52:07.160Z,24.33
2019-03-03T08:53:07.143Z,24.52
2019-03-03T08:54:07.117Z,24.23
2019-03-03T08:55:07.094Z,24.33
2019-03-03T08:56:07.072Z,24.04
2019-03-03T08:57:07.059Z,24.13
2019-03-03T08:58:07.030Z,24.43
2019-03-03T08:59:07.017Z,24.33
2019-03-03T09:00:06.751Z,24.32
2019-03-03T09:01:06.964Z,24.23
2019-03-03T09:02:06.948Z,24.82
2019-03-03T09:03:06.932Z,24.43
2019-03-03T09:04:06.916Z,24.72
2019-03-03T09:05:06.889Z,24.52
2019-03-03T09:06:06.864Z,24.71
2019-03-03T09:07:06.836Z,24.62
2019-03-03T09:08:06.823Z,24.43
2019-03-03T09:09:06.805Z,24.43
2019-03-03T09:10:06.778Z,24.52
2019-03-03T09:11:06.758Z,24.43
2019-03-03T09:12:06.731Z,24.51
2019-03-03T09:13:06.719Z,24.52
2019-03-03T09:14:06.694Z,24.51
2019-03-03T09:15:06.679Z,24.52
2019-03-03T09:16:06.648Z,24.52
2019-03-03T09:17:06.637Z,24.62
2019-03-03T09:18:06.612Z,24.72
2019-03-03T09:19:06.597Z,24.61
2019-03-03T09:20:06.575Z,24.71
2019-03-03T09:21:06.540Z,24.71
2019-03-03T09:22:07.187Z,24.62
2019-03-03T09:23:06.513Z,24.72
2019-03-03T09:24:06.482Z,24.82
2019-03-03T09:25:06.464Z,24.8
2019-03-03T09:26:06.442Z,24.72
2019-03-03T09:27:06.427Z,24.82
2019-03-03T09:28:06.407Z,24.91
2019-03-03T09:29:06.371Z,25.01
2019-03-03T09:30:06.358Z,24.91
2019-03-03T09:31:06.330Z,24.91
2019-03-03T09:32:06.329Z,25.01
2019-03-03T09:33:06.288Z,25.01
2019-03-03T09:34:06.269Z,24.91
2019-03-03T09:35:06.249Z,24.8
2019-03-03T09:36:06.234Z,24.82
2019-03-03T09:37:06.216Z,24.82
2019-03-03T09:38:06.186Z,24.91
2019-03-03T09:39:07.976Z,24.9
2019-03-03T09:40:12.052Z,24.82
2019-03-03T09:41:06.130Z,24.72
2019-03-03T09:42:06.099Z,24.62
2019-03-03T09:43:06.075Z,25.01
2019-03-03T09:44:06.054Z,25.01
2019-03-03T09:45:06.046Z,24.72
2019-03-03T09:46:06.018Z,25.01
2019-03-03T09:47:06.002Z,24.72
2019-03-03T09:48:05.971Z,24.82
2019-03-03T09:49:05.960Z,24.72
2019-03-03T09:50:05.936Z,24.91
2019-03-03T09:51:05.924Z,25.01
2019-03-03T09:52:05.905Z,25.1
2019-03-03T09:53:05.868Z,25.2
2019-03-03T09:54:05.853Z,25.49
2019-03-03T09:55:05.834Z,25.59
2019-03-03T09:56:05.806Z,25.4
2019-03-03T09:57:05.780Z,25.3
2019-03-03T09:58:05.770Z,25.4
2019-03-03T09:59:05.755Z,25.2
2019-03-03T10:00:05.486Z,25.2
2019-03-03T10:01:05.699Z,25.2
2019-03-03T10:02:05.682Z,25.3
2019-03-03T10:03:05.654Z,25.4
2019-03-03T10:04:05.642Z,25.49
2019-03-03T10:05:05.611Z,25.3
2019-03-03T10:06:05.609Z,25.3
2019-03-03T10:07:05.566Z,25.49
2019-03-03T10:08:05.562Z,25.4
2019-03-03T10:09:05.540Z,25.49
2019-03-03T10:10:05.508Z,25.68
2019-03-03T10:11:05.485Z,25.49
2019-03-03T10:12:05.470Z,25.49
2019-03-03T10:13:05.457Z,25.49
2019-03-03T10:14:05.427Z,25.58
2019-03-03T10:15:05.407Z,25.49
2019-03-03T10:16:05.383Z,25.49
2019-03-03T10:17:05.368Z,25.4
2019-03-03T10:18:05.342Z,25.4
2019-03-03T10:19:09.760Z,25.78
2019-03-03T10:20:05.294Z,25.38
2019-03-03T10:21:05.733Z,25.4
2019-03-03T10:22:05.270Z,25.58
2019-03-03T10:23:05.244Z,25.96
2019-03-03T10:24:05.225Z,25.48
2019-03-03T10:25:05.192Z,25.68
2019-03-03T10:26:05.175Z,25.58
2019-03-03T10:27:05.161Z,25.78
2019-03-03T10:28:05.133Z,25.38
2019-03-03T10:29:05.109Z,25.48
2019-03-03T10:30:05.093Z,25.78
2019-03-03T10:31:05.073Z,25.96
2019-03-03T10:32:05.050Z,25.98
2019-03-03T10:33:05.036Z,25.58
2019-03-03T10:34:05.004Z,25.98
2019-03-03T10:35:04.981Z,25.77
2019-03-03T10:36:04.970Z,25.87
2019-03-03T10:37:04.958Z,25.77
2019-03-03T10:38:04.920Z,25.68
2019-03-03T10:39:04.904Z,25.59
2019-03-03T10:40:04.883Z,25.48
2019-03-03T10:41:04.865Z,25.59
2019-03-03T10:42:04.835Z,25.59
2019-03-03T10:43:04.806Z,26.07
2019-03-03T10:44:04.796Z,26.07
2019-03-03T10:45:04.777Z,25.98
2019-03-03T10:46:04.751Z,25.88
2019-03-03T10:47:04.726Z,25.88
2019-03-03T10:48:04.704Z,25.78
2019-03-03T10:49:04.693Z,25.98
2019-03-03T10:50:04.662Z,26.07
2019-03-03T10:51:04.649Z,25.98
2019-03-03T10:52:04.621Z,25.88
2019-03-03T10:53:04.611Z,26.07
2019-03-03T10:54:04.581Z,25.78
2019-03-03T10:55:04.566Z,25.78
2019-03-03T10:56:04.539Z,25.78
2019-03-03T10:57:04.518Z,25.78
2019-03-03T10:58:04.502Z,25.78
2019-03-03T10:59:04.484Z,25.98
2019-03-03T11:00:04.455Z,25.98
2019-03-03T11:01:04.426Z,26.07
2019-03-03T11:02:04.415Z,25.88
2019-03-03T11:03:05.077Z,25.98
2019-03-03T11:04:04.376Z,26.07
2019-03-03T11:05:04.359Z,26.07
2019-03-03T11:06:04.333Z,25.98
2019-03-03T11:07:04.312Z,26.07
2019-03-03T11:08:04.292Z,26.07
2019-03-03T11:09:04.263Z,26.17
2019-03-03T11:10:04.245Z,26.07
2019-03-03T11:11:04.241Z,25.88
2019-03-03T11:12:04.206Z,26.17
2019-03-03T11:13:04.189Z,26.07
2019-03-03T11:14:04.336Z,25.98
2019-03-03T11:15:04.150Z,26.07
2019-03-03T11:16:04.119Z,25.98
2019-03-03T11:17:04.100Z,25.98
2019-03-03T11:18:04.078Z,26.07
2019-03-03T11:19:04.065Z,26.07
2019-03-03T11:20:04.033Z,26.07
2019-03-03T11:21:04.046Z,26.07
2019-03-03T11:22:03.993Z,25.98
2019-03-03T11:23:03.979Z,26.27
2019-03-03T11:24:03.945Z,26.27
2019-03-03T11:25:03.940Z,26.07
2019-03-03T11:26:03.908Z,26.27
2019-03-03T11:27:03.895Z,26.17
2019-03-03T11:28:03.864Z,26.17
2019-03-03T11:29:03.844Z,26.17
2019-03-03T11:30:03.825Z,26.17
2019-03-03T11:31:03.927Z,26.17
2019-03-03T11:32:03.877Z,26.07
2019-03-03T11:33:03.759Z,26.27
2019-03-03T11:34:03.743Z,26.17
2019-03-03T11:35:03.726Z,26.17
2019-03-03T11:36:03.702Z,26.27
2019-03-03T11:37:03.670Z,26.17
2019-03-03T11:38:03.708Z,26.27
2019-03-03T11:39:03.628Z,26.17
2019-03-03T11:40:03.617Z,26.17
2019-03-03T11:41:03.592Z,26.07
2019-03-03T11:42:03.571Z,26.07
2019-03-03T11:43:03.543Z,26.07
2019-03-03T11:44:03.534Z,26.17
2019-03-03T11:45:03.572Z,26.07
2019-03-03T11:46:04.207Z,26.17
2019-03-03T11:47:03.461Z,26.17
2019-03-03T11:48:06.968Z,26.17
2019-03-03T11:49:03.431Z,26.17
2019-03-03T11:50:03.401Z,26.17
2019-03-03T11:51:03.374Z,26.17
2019-03-03T11:52:03.354Z,26.17
2019-03-03T11:53:03.346Z,26.17
2019-03-03T11:54:03.318Z,26.27
2019-03-03T11:55:03.657Z,26.17
2019-03-03T11:56:03.267Z,26.27
2019-03-03T11:57:03.023Z,25.98
2019-03-03T11:58:03.234Z,26.07
2019-03-03T11:59:03.217Z,25.98
2019-03-03T12:00:03.187Z,25.98
2019-03-03T12:01:03.161Z,26.17
2019-03-03T12:02:03.151Z,26.27
2019-03-03T12:03:03.133Z,26.27
2019-03-03T12:04:03.111Z,26.07
2019-03-03T12:05:03.081Z,25.88
2019-03-03T12:06:03.066Z,26.17
2019-03-03T12:07:02.818Z,25.98
2019-03-03T12:08:03.030Z,26.07
2019-03-03T12:09:03.002Z,25.98
2019-03-03T12:10:02.996Z,25.98
2019-03-03T12:11:02.957Z,26.07
2019-03-03T12:12:02.949Z,26.07
2019-03-03T12:13:02.918Z,26.07
2019-03-03T12:14:02.895Z,25.88
2019-03-03T12:15:02.875Z,26.07
2019-03-03T12:16:02.889Z,25.88
2019-03-03T12:17:02.842Z,25.98
2019-03-03T12:18:02.815Z,26.07
2019-03-03T12:19:04.149Z,26.27
2019-03-03T12:20:02.773Z,26.27
2019-03-03T12:21:02.758Z,26.17
2019-03-03T12:22:02.734Z,26.27
2019-03-03T12:23:02.716Z,26.37
2019-03-03T12:24:02.681Z,26.37
2019-03-03T12:25:02.680Z,26.17
2019-03-03T12:26:02.644Z,26.17
2019-03-03T12:27:02.625Z,26.37
2019-03-03T12:28:02.610Z,26.27
2019-03-03T12:29:02.578Z,26.27
2019-03-03T12:30:02.665Z,26.17
2019-03-03T12:31:02.539Z,26.27
2019-03-03T12:32:02.527Z,26.17
2019-03-03T12:33:02.504Z,26.37
2019-03-03T12:34:02.476Z,26.17
2019-03-03T12:35:02.453Z,26.17
2019-03-03T12:36:02.434Z,26.17
2019-03-03T12:37:02.418Z,26.17
2019-03-03T12:38:02.390Z,26.27
2019-03-03T12:39:02.366Z,26.17
2019-03-03T12:40:02.348Z,26.17
2019-03-03T12:41:02.363Z,26.37
2019-03-03T12:42:03.674Z,26.07
2019-03-03T12:43:02.294Z,26.07
2019-03-03T12:44:02.260Z,26.07
2019-03-03T12:45:02.252Z,26.07
2019-03-03T12:46:02.243Z,26.07
2019-03-03T12:47:02.216Z,26.17
2019-03-03T12:48:02.175Z,26.07
2019-03-03T12:49:02.155Z,26.07
2019-03-03T12:50:02.142Z,26.07
2019-03-03T12:51:02.128Z,26.27
2019-03-03T12:52:02.100Z,26.27
2019-03-03T12:53:02.074Z,26.17